Wichita Falls, TX (76310)

5:52 PM CDT on July 23, 2016 (GMT -0500)
Wichita Falls | | Change Station

Elev 984 ft 33.85 °N, 98.54 °W | Updated 1 minute ago

Scattered Clouds
Scattered Clouds
102.6 °F
Feels Like 110 °F
N
5.4
Wind Variable Wind from SE
Gusts 8.5 mph

Today
High -- | Low -- °F
--% Chance of Precip.
Yesterday
High -- | Low -- °F
Precip. -- in
Pressure 29.87 in
Visibility 10.0 miles
Clouds Scattered Clouds 8500 ft
Heat Index 110 °F
Dew Point 69 °F
Humidity 34%
Rainfall 0.00 in
Snow Depth Not available.
6:40 AM 8:41 PM
Waning Gibbous, 82% visible
METAR KCWC 232235Z AUTO 16011G19KT 10SM SCT085 39/16 A2987 RMK AO2 T03860155
Pressure 29.87 in
Visibility 10.0 miles
Clouds Scattered Clouds 8500 ft
Heat Index 110 °F
Dew Point 69 °F
Humidity 34%
Rainfall 0.00 in
Snow Depth Not available.
6:40 AM 8:41 PM
Waning Gibbous, 82% visible
METAR KCWC 232235Z AUTO 16011G19KT 10SM SCT085 39/16 A2987 RMK AO2 T03860155

10-Day Weather Forecast

Almanac

Astronomy

Jul. 23, 2016 Rise Set
Actual Time
Civil Twilight
Nautical Twilight
Astronomical Twilight
Moon
Length of Visible Light
Length of Day
Tomorrow will be .
, % of the Moon is Illuminated

Today's Extremes

State Highs State Lows

Community

WunderPhotos

Upload Photos

1,926,950 photos uploaded!

WunderBlog® & News

Nearby

Air Quality

  Air Quality AQ Index Pollutant
Not available.

Snow Depth

Station Depth Elevation

Earthquake Activity

City Distance Mag. Time & Date
Minimum magnitude displayed is 2.5.

Coastal Water Temperatures

Place Temperature

Stations

Nearby Weather Stations

Station Location Temp. Windchill Dew Point Humidity Wind Precip. Elev Updated Type
                   

Watches & Warnings

There are currently no watches in effect.